FQQL

Quelimane Airport

Quelimane, Mozambique
METAR FQQL 181200Z 15004KT 9999 SCT020 28/19 Q1017
Observed Flight Rules
Jun-18 @ 12:00 UTC (an hour ago) Visual Flight Rules
Wind Visibility Clouds
150° at 4 knots 10,000+ meters
  • Scattered at 2,000' AGL
Temperatures Readings
Current 28°C / 82°F
Dewpoint 19°C / 66°F
Humidity 58%
Altimeter 30.03" Hg
Pressure 1017 hPa
Elevation 16
METAR FQQL 181200Z 15004KT 9999 SCT020 28/19 Q1017
Observed Flight Rules
Jun-18 @ 12:00 UTC
(an hour ago)
VFR
Wind Visibility
150° at 4 knots 10,000+ meters
Clouds
  • Scattered at 2,000' AGL
Temperature Dewpoint
28°C / 82°F 19°C / 66°F
Humidity Altimeter Pressure
58% 30.03" Hg 1017 hPa